Time;durP1;ratioP1;P1;durP2;ratioP2;P2;SDS_P1;SDS_P2;PMS_P1;PMS_P2;Temp;Humidity;BMP_temperature;BMP_pressure;BME280_temperature;BME280_humidity;BME280_pressure;Samples;Min_cycle;Max_cycle;Signal;HPM_P1;HPM_P2
2022/07/04 00:02:01;;;;;;;2.40;1.90;;;;;;;;;;4958579;29;20759;-74
2022/07/04 00:04:30;;;;;;;3.00;1.80;;;;;;;;;;4958504;28;20651;-74
2022/07/04 00:06:59;;;;;;;1.90;1.70;;;;;;;;;;4958341;28;20210;-74
2022/07/04 00:09:27;;;;;;;2.47;1.97;;;;;;;;;;4958881;28;20210;-74
2022/07/04 00:11:56;;;;;;;1.80;1.70;;;;;;;;;;4958695;29;20206;-74
2022/07/04 00:14:24;;;;;;;2.37;2.00;;;;;;;;;;4957824;28;20226;-74
2022/07/04 00:16:53;;;;;;;2.10;1.90;;;;;;;;;;4958320;28;20229;-74
2022/07/04 00:19:21;;;;;;;1.97;1.80;;;;;;;;;;4958288;28;20584;-74
2022/07/04 00:21:51;;;;;;;2.47;1.90;;;;;;;;;;4958258;28;20699;-74
2022/07/04 00:24:20;;;;;;;2.17;1.93;;;;;;;;;;4958105;28;20635;-74
2022/07/04 00:26:48;;;;;;;2.87;2.50;;;;;;;;;;4957375;28;20205;-74
2022/07/04 00:29:16;;;;;;;2.67;2.10;;;;;;;;;;4958251;28;20233;-74
2022/07/04 00:31:45;;;;;;;3.50;2.10;;;;;;;;;;4958829;29;20195;-74
2022/07/04 00:34:13;;;;;;;3.10;2.40;;;;;;;;;;4957871;29;20210;-74
2022/07/04 00:36:42;;;;;;;3.40;2.10;;;;;;;;;;4958173;28;20207;-74
2022/07/04 00:39:12;;;;;;;3.50;2.27;;;;;;;;;;4958084;28;20206;-74
2022/07/04 00:41:40;;;;;;;2.43;2.20;;;;;;;;;;4957013;29;20230;-74
2022/07/04 00:44:11;;;;;;;2.50;2.03;;;;;;;;;;4957932;28;20217;-74
2022/07/04 00:46:41;;;;;;;4.07;2.20;;;;;;;;;;4957674;29;20562;-74
2022/07/04 00:49:10;;;;;;;2.50;2.30;;;;;;;;;;4957567;28;20210;-74
2022/07/04 00:51:39;;;;;;;3.83;2.77;;;;;;;;;;4957403;28;20623;-74
2022/07/04 00:54:07;;;;;;;3.00;2.33;;;;;;;;;;4957858;28;20213;-74
2022/07/04 00:56:38;;;;;;;3.40;2.53;;;;;;;;;;4956120;28;20206;-74
2022/07/04 00:59:07;;;;;;;2.97;2.33;;;;;;;;;;4957527;29;20215;-74
2022/07/04 01:01:35;;;;;;;4.63;2.30;;;;;;;;;;4957239;29;20226;-74
2022/07/04 01:04:04;;;;;;;2.37;2.17;;;;;;;;;;4957673;29;20301;-74
2022/07/04 01:06:33;;;;;;;3.93;2.50;;;;;;;;;;4957576;28;20676;-74
2022/07/04 01:09:02;;;;;;;3.20;2.90;;;;;;;;;;4957591;28;20265;-74
2022/07/04 01:11:31;;;;;;;3.40;3.10;;;;;;;;;;4957261;28;20625;-74
2022/07/04 01:14:01;;;;;;;3.70;3.23;;;;;;;;;;4957238;28;20209;-74
2022/07/04 01:16:29;;;;;;;4.13;3.40;;;;;;;;;;4956526;28;20211;-74
2022/07/04 01:18:58;;;;;;;3.67;3.30;;;;;;;;;;4956650;29;20225;-74
2022/07/04 01:21:27;;;;;;;3.40;3.10;;;;;;;;;;4957363;28;20211;-74
2022/07/04 01:23:56;;;;;;;3.27;2.97;;;;;;;;;;4957213;28;20211;-74
2022/07/04 01:26:25;;;;;;;3.60;3.20;;;;;;;;;;4956216;28;20293;-74
2022/07/04 01:28:53;;;;;;;3.27;2.97;;;;;;;;;;4957456;28;20217;-75
2022/07/04 01:31:21;;;;;;;3.97;3.10;;;;;;;;;;4957446;29;20214;-74
2022/07/04 01:33:50;;;;;;;3.57;3.27;;;;;;;;;;4956951;28;20302;-74
2022/07/04 01:36:18;;;;;;;3.63;3.17;;;;;;;;;;4956902;29;20720;-74
2022/07/04 01:38:48;;;;;;;6.53;3.20;;;;;;;;;;4956874;28;20207;-74
2022/07/04 01:41:17;;;;;;;4.30;3.57;;;;;;;;;;4956109;28;20229;-74
2022/07/04 01:43:45;;;;;;;4.53;3.50;;;;;;;;;;4956045;28;20222;-74
2022/07/04 01:46:14;;;;;;;3.70;3.30;;;;;;;;;;4956756;28;20233;-74
2022/07/04 01:48:42;;;;;;;4.57;4.13;;;;;;;;;;4956531;28;20296;-74
2022/07/04 01:51:10;;;;;;;3.93;3.60;;;;;;;;;;4956422;28;20735;-74
2022/07/04 01:53:39;;;;;;;6.13;4.13;;;;;;;;;;4956428;28;20206;-74
2022/07/04 01:56:09;;;;;;;3.83;3.53;;;;;;;;;;4955673;28;20258;-74
2022/07/04 01:58:37;;;;;;;3.70;3.37;;;;;;;;;;4956675;29;20211;-74
2022/07/04 02:03:52;;;;;;;4.37;3.97;;;;;;;;;;4956151;28;20233;-74
2022/07/04 02:06:20;;;;;;;3.93;3.50;;;;;;;;;;4956065;28;20226;-75
2022/07/04 02:14:19;;;;;;;4.30;3.90;;;;;;;;;;4955602;29;20222;-74
2022/07/04 02:16:47;;;;;;;4.67;4.27;;;;;;;;;;4956335;28;20214;-74
2022/07/04 02:19:16;;;;;;;5.33;4.93;;;;;;;;;;4956449;29;20210;-74
2022/07/04 02:21:44;;;;;;;5.17;4.70;;;;;;;;;;4956505;28;20206;-74
2022/07/04 02:24:12;;;;;;;5.37;4.70;;;;;;;;;;4955280;28;20763;-74
2022/07/04 02:26:42;;;;;;;4.97;4.50;;;;;;;;;;4955767;28;20671;-74
2022/07/04 02:29:11;;;;;;;5.60;5.10;;;;;;;;;;4955872;29;20206;-74
2022/07/04 02:31:40;;;;;;;4.70;4.30;;;;;;;;;;4956248;28;20210;-74
2022/07/04 02:34:08;;;;;;;4.63;4.20;;;;;;;;;;4955934;29;20241;-74
2022/07/04 02:36:37;;;;;;;5.13;4.73;;;;;;;;;;4955718;29;20206;-74
2022/07/04 02:39:05;;;;;;;5.97;4.93;;;;;;;;;;4955048;28;20206;-74
2022/07/04 02:41:34;;;;;;;5.53;4.60;;;;;;;;;;4955884;28;20672;-74
2022/07/04 02:44:04;;;;;;;5.93;5.00;;;;;;;;;;4955715;28;20281;-74
2022/07/04 02:46:33;;;;;;;5.03;4.53;;;;;;;;;;4955988;28;20233;-74
2022/07/04 02:49:02;;;;;;;5.27;4.87;;;;;;;;;;4955699;28;20664;-74
2022/07/04 02:51:30;;;;;;;5.10;4.60;;;;;;;;;;4955605;28;20215;-74
2022/07/04 02:53:59;;;;;;;8.47;4.73;;;;;;;;;;4954624;28;20303;-74
2022/07/04 02:56:27;;;;;;;6.27;5.40;;;;;;;;;;4955530;28;20735;-74
2022/07/04 02:58:56;;;;;;;6.00;5.40;;;;;;;;;;4955172;28;20207;-74
2022/07/04 03:01:26;;;;;;;7.73;5.80;;;;;;;;;;4955939;28;20659;-74
2022/07/04 03:03:54;;;;;;;6.10;5.50;;;;;;;;;;4955441;29;20222;-74
2022/07/04 03:06:23;;;;;;;6.20;5.70;;;;;;;;;;4955124;29;20743;-74
2022/07/04 03:08:52;;;;;;;6.57;5.97;;;;;;;;;;4954684;28;20203;-74
2022/07/04 03:11:21;;;;;;;6.30;5.63;;;;;;;;;;4955623;28;20213;-74
2022/07/04 03:13:49;;;;;;;6.10;5.50;;;;;;;;;;4955427;28;20625;-74
2022/07/04 03:16:18;;;;;;;7.27;6.50;;;;;;;;;;4955215;28;20636;-74
2022/07/04 03:18:48;;;;;;;6.40;5.83;;;;;;;;;;4955118;28;20214;-74
2022/07/04 03:21:16;;;;;;;6.63;6.03;;;;;;;;;;4955041;28;20210;-74
2022/07/04 03:23:57;;;;;;;6.60;6.00;;;;;;;;;;4954733;28;20223;-74
2022/07/04 03:26:26;;;;;;;7.43;6.17;;;;;;;;;;4955018;28;20647;-74
2022/07/04 03:28:54;;;;;;;6.70;6.10;;;;;;;;;;4955165;28;20213;-74
2022/07/04 03:31:23;;;;;;;8.03;6.53;;;;;;;;;;4955029;28;20213;-74
2022/07/04 03:33:53;;;;;;;7.07;6.37;;;;;;;;;;4955203;28;20213;-74
2022/07/04 03:36:22;;;;;;;7.40;6.70;;;;;;;;;;4954615;28;20595;-73
2022/07/04 03:38:50;;;;;;;8.00;7.30;;;;;;;;;;4955351;28;20600;-74
2022/07/04 03:41:18;;;;;;;8.83;7.77;;;;;;;;;;4955409;29;20257;-74
2022/07/04 03:43:47;;;;;;;7.60;6.70;;;;;;;;;;4955290;28;20249;-74
2022/07/04 03:46:15;;;;;;;8.00;7.10;;;;;;;;;;4954734;29;20281;-74
2022/07/04 03:48:44;;;;;;;8.10;7.27;;;;;;;;;;4955113;29;20297;-74
2022/07/04 03:51:14;;;;;;;8.53;7.33;;;;;;;;;;4954272;28;20210;-74
2022/07/04 03:53:42;;;;;;;8.10;7.30;;;;;;;;;;4954455;29;20233;-74
2022/07/04 03:56:11;;;;;;;7.97;7.33;;;;;;;;;;4954078;29;20230;-74
2022/07/04 03:58:42;;;;;;;8.87;7.73;;;;;;;;;;4955143;29;20668;-74
2022/07/04 04:01:10;;;;;;;8.97;7.60;;;;;;;;;;4955032;29;20261;-74
2022/07/04 04:06:26;;;;;;;8.33;7.53;;;;;;;;;;4953966;28;20230;-74
2022/07/04 04:08:55;;;;;;;8.37;7.47;;;;;;;;;;4954616;29;20214;-74
2022/07/04 04:11:23;;;;;;;8.67;7.77;;;;;;;;;;4954968;28;20210;-74
2022/07/04 04:13:52;;;;;;;9.37;7.90;;;;;;;;;;4954760;29;20214;-74
2022/07/04 04:16:20;;;;;;;9.00;8.20;;;;;;;;;;4954414;28;20230;-73
2022/07/04 04:18:49;;;;;;;8.60;7.80;;;;;;;;;;4954566;29;20218;-74
2022/07/04 04:21:17;;;;;;;9.63;8.60;;;;;;;;;;4953958;28;20715;-74
2022/07/04 04:23:47;;;;;;;10.00;9.00;;;;;;;;;;4954678;28;20227;-74
2022/07/04 04:26:15;;;;;;;9.70;8.80;;;;;;;;;;4954703;28;20651;-74
2022/07/04 04:28:44;;;;;;;9.93;8.50;;;;;;;;;;4954666;28;20584;-74
2022/07/04 04:31:14;;;;;;;11.17;8.70;;;;;;;;;;4955082;28;20266;-74
2022/07/04 04:33:42;;;;;;;8.37;7.53;;;;;;;;;;4957674;29;20206;-74
2022/07/04 04:36:11;;;;;;;8.83;7.93;;;;;;;;;;4957566;28;20233;-74
2022/07/04 04:38:39;;;;;;;8.77;8.00;;;;;;;;;;4957980;28;20218;-74
2022/07/04 04:41:09;;;;;;;9.70;8.90;;;;;;;;;;4958097;28;20686;-74
2022/07/04 04:43:38;;;;;;;9.33;8.43;;;;;;;;;;4957717;28;20225;-74
2022/07/04 04:46:06;;;;;;;9.40;8.40;;;;;;;;;;4957721;28;20230;-74
2022/07/04 04:48:35;;;;;;;9.67;8.87;;;;;;;;;;4957470;28;20206;-74
2022/07/04 04:51:03;;;;;;;9.07;8.20;;;;;;;;;;4956698;28;20574;-74
2022/07/04 04:53:36;;;;;;;8.80;7.97;;;;;;;;;;4957845;28;20656;-74
2022/07/04 04:56:05;;;;;;;8.97;8.17;;;;;;;;;;4957929;28;20226;-74
2022/07/04 04:58:35;;;;;;;8.67;7.80;;;;;;;;;;4957626;29;20694;-74
2022/07/04 05:01:03;;;;;;;9.20;8.40;;;;;;;;;;4957459;29;20206;-74
2022/07/04 05:03:52;;;;;;;8.87;7.60;;;;;;;;;;4952738;29;20226;-74
2022/07/04 05:06:20;;;;;;;8.37;7.63;;;;;;;;;;4957086;29;20268;-74
2022/07/04 05:08:49;;;;;;;9.67;8.17;;;;;;;;;;4957249;28;20211;-74
2022/07/04 05:11:17;;;;;;;8.17;7.47;;;;;;;;;;4956955;28;20253;-74
2022/07/04 05:13:47;;;;;;;10.10;8.03;;;;;;;;;;4956878;28;20213;-74
2022/07/04 05:16:16;;;;;;;8.47;7.50;;;;;;;;;;4956878;28;20227;-74
2022/07/04 05:18:44;;;;;;;8.77;7.87;;;;;;;;;;4956247;28;20205;-74
2022/07/04 05:21:13;;;;;;;9.27;8.30;;;;;;;;;;4957633;28;20213;-74
2022/07/04 05:23:41;;;;;;;9.50;8.50;;;;;;;;;;4956763;28;20281;-74
2022/07/04 05:26:10;;;;;;;10.53;8.60;;;;;;;;;;4957041;28;20231;-74
2022/07/04 05:28:38;;;;;;;8.77;7.97;;;;;;;;;;4957149;28;20627;-74
2022/07/04 05:31:08;;;;;;;9.00;8.20;;;;;;;;;;4956952;28;20211;-74
2022/07/04 05:33:36;;;;;;;8.67;7.73;;;;;;;;;;4955684;28;20203;-74
2022/07/04 05:36:05;;;;;;;7.67;6.97;;;;;;;;;;4956389;28;20222;-74
2022/07/04 05:38:33;;;;;;;7.47;6.87;;;;;;;;;;4956320;28;20206;-74
2022/07/04 05:41:02;;;;;;;6.43;5.83;;;;;;;;;;4956590;28;20219;-74
2022/07/04 05:43:31;;;;;;;6.97;5.90;;;;;;;;;;4937692;28;20203;-74
2022/07/04 05:45:59;;;;;;;6.13;5.53;;;;;;;;;;4937572;28;20235;-74
2022/07/04 05:48:29;;;;;;;7.00;5.30;;;;;;;;;;4937835;29;20298;-74
2022/07/04 05:50:57;;;;;;;5.90;5.30;;;;;;;;;;4956441;28;20253;-74
2022/07/04 05:53:26;;;;;;;7.83;4.87;;;;;;;;;;4956662;28;20281;-74
2022/07/04 05:55:54;;;;;;;5.07;4.60;;;;;;;;;;4955823;28;20223;-74
2022/07/04 05:58:23;;;;;;;8.03;4.90;;;;;;;;;;4956672;28;20214;-74
2022/07/04 06:00:51;;;;;;;6.83;4.00;;;;;;;;;;4956554;28;20271;-74
2022/07/04 06:03:20;;;;;;;4.60;3.80;;;;;;;;;;4956254;28;20236;-74
2022/07/04 06:05:53;;;;;;;5.23;3.10;;;;;;;;;;4955668;28;20238;-74
2022/07/04 06:08:22;;;;;;;4.00;3.50;;;;;;;;;;4956431;29;20210;-74
2022/07/04 06:10:50;;;;;;;4.40;4.00;;;;;;;;;;4956380;28;20214;-74
2022/07/04 06:13:18;;;;;;;7.07;3.87;;;;;;;;;;4956184;28;20257;-74
2022/07/04 06:15:47;;;;;;;3.90;3.60;;;;;;;;;;4956039;28;20226;-74
2022/07/04 06:18:16;;;;;;;3.30;3.00;;;;;;;;;;4954228;28;20615;-74
2022/07/04 06:20:44;;;;;;;4.20;3.10;;;;;;;;;;4955564;28;20576;-74
2022/07/04 06:23:14;;;;;;;5.27;3.37;;;;;;;;;;4955747;29;20203;-74
2022/07/04 06:25:42;;;;;;;7.10;3.22;;;;;;;;;;4956195;28;20277;-74
2022/07/04 06:28:11;;;;;;;5.30;3.10;;;;;;;;;;4955661;28;20721;-74
2022/07/04 06:30:59;;;;;;;4.60;2.80;;;;;;;;;;4955983;28;20210;-74
2022/07/04 06:33:28;;;;;;;2.95;2.53;;;;;;;;;;4955810;28;20199;-74
2022/07/04 06:35:55;;;;;;;5.68;2.60;;;;;;;;;;4955138;29;20624;-74
2022/07/04 06:38:26;;;;;;;3.38;2.53;;;;;;;;;;4955803;28;20199;-74
2022/07/04 06:40:55;;;;;;;4.65;2.38;;;;;;;;;;4954771;28;20203;-74
2022/07/04 06:43:24;;;;;;;4.25;1.95;;;;;;;;;;4952733;29;20683;-74
2022/07/04 06:45:53;;;;;;;2.55;2.03;;;;;;;;;;4955476;28;20256;-74
2022/07/04 06:48:22;;;;;;;5.43;2.30;;;;;;;;;;4954920;28;20206;-74
2022/07/04 06:50:50;;;;;;;7.00;2.20;;;;;;;;;;4937074;29;20740;-74
2022/07/04 06:53:19;;;;;;;3.28;1.85;;;;;;;;;;4944663;28;20206;-74
2022/07/04 06:55:49;;;;;;;3.35;1.75;;;;;;;;;;4954736;28;20231;-74
2022/07/04 06:58:18;;;;;;;3.30;1.83;;;;;;;;;;4943240;28;20665;-74
2022/07/04 07:00:46;;;;;;;4.07;2.10;;;;;;;;;;4936481;29;20581;-74
2022/07/04 07:03:15;;;;;;;4.95;2.10;;;;;;;;;;4939699;29;20230;-74
2022/07/04 07:05:44;;;;;;;5.50;2.08;;;;;;;;;;4955160;28;20226;-74
2022/07/04 07:08:29;;;;;;;3.33;2.00;;;;;;;;;;4955576;28;20705;-74
2022/07/04 07:11:12;;;;;;;4.30;1.95;;;;;;;;;;4955012;28;20222;-75
2022/07/04 07:13:41;;;;;;;3.35;1.70;;;;;;;;;;4954335;28;20746;-74
2022/07/04 07:16:10;;;;;;;2.30;1.42;;;;;;;;;;4954943;28;20738;-74
2022/07/04 07:18:38;;;;;;;3.20;1.80;;;;;;;;;;4953289;28;20203;-74
2022/07/04 07:21:07;;;;;;;3.20;1.50;;;;;;;;;;4936457;28;20661;-74
2022/07/04 07:23:35;;;;;;;3.53;1.70;;;;;;;;;;4942446;28;20210;-75
2022/07/04 07:26:05;;;;;;;3.20;1.70;;;;;;;;;;4954306;28;20593;-74
2022/07/04 07:28:34;;;;;;;4.68;1.80;;;;;;;;;;4954901;28;20205;-75
2022/07/04 07:31:02;;;;;;;2.72;1.42;;;;;;;;;;4955143;28;20206;-74
2022/07/04 07:33:31;;;;;;;1.38;1.20;;;;;;;;;;4954837;28;20202;-74
2022/07/04 07:35:59;;;;;;;5.45;1.75;;;;;;;;;;4955357;28;20230;-74
2022/07/04 07:38:27;;;;;;;3.28;1.20;;;;;;;;;;4954901;28;20249;-75
2022/07/04 07:40:56;;;;;;;5.68;1.40;;;;;;;;;;4954426;28;20207;-74
2022/07/04 07:43:26;;;;;;;3.08;1.25;;;;;;;;;;4954665;28;20285;-75
2022/07/04 07:45:55;;;;;;;3.00;1.10;;;;;;;;;;4955005;28;20707;-74
2022/07/04 07:48:23;;;;;;;2.00;1.15;;;;;;;;;;4954837;28;20253;-75
2022/07/04 07:50:52;;;;;;;1.38;1.10;;;;;;;;;;4955221;28;20211;-74
2022/07/04 07:53:20;;;;;;;3.63;1.20;;;;;;;;;;4954705;28;20202;-74
2022/07/04 07:55:49;;;;;;;2.17;1.00;;;;;;;;;;4950778;28;20294;-74
2022/07/04 07:58:19;;;;;;;1.73;0.93;;;;;;;;;;4953545;29;20656;-74
2022/07/04 08:00:49;;;;;;;1.25;0.80;;;;;;;;;;4953397;29;20675;-73
2022/07/04 08:06:10;;;;;;;1.13;0.70;;;;;;;;;;4954473;28;20230;-74
2022/07/04 08:08:38;;;;;;;1.90;0.85;;;;;;;;;;4957853;28;20206;-74
2022/07/04 08:11:07;;;;;;;1.92;0.82;;;;;;;;;;4958797;29;20218;-74
2022/07/04 08:13:35;;;;;;;3.20;1.05;;;;;;;;;;4958419;29;20242;-74
2022/07/04 08:16:05;;;;;;;3.33;1.00;;;;;;;;;;4957542;29;20226;-74
2022/07/04 08:18:34;;;;;;;1.95;1.10;;;;;;;;;;4958470;28;20580;-74
2022/07/04 08:21:03;;;;;;;0.90;0.90;;;;;;;;;;4958269;28;20210;-74
2022/07/04 08:23:40;;;;;;;1.88;1.00;;;;;;;;;;4958020;28;20206;-74
2022/07/04 08:26:15;;;;;;;4.10;1.30;;;;;;;;;;4957932;28;20281;-74
2022/07/04 08:28:43;;;;;;;1.60;1.00;;;;;;;;;;4956647;28;20210;-75
2022/07/04 08:31:13;;;;;;;2.42;1.00;;;;;;;;;;4953885;29;20221;-74
2022/07/04 08:34:01;;;;;;;2.83;1.13;;;;;;;;;;4953578;29;20198;-74
2022/07/04 08:36:30;;;;;;;1.38;0.73;;;;;;;;;;4953828;29;20203;-75
2022/07/04 08:38:58;;;;;;;0.88;0.82;;;;;;;;;;4954341;29;20202;-74
2022/07/04 08:41:28;;;;;;;0.93;0.70;;;;;;;;;;4953026;29;20699;-74
2022/07/04 08:43:57;;;;;;;1.60;0.93;;;;;;;;;;4951469;28;20206;-74
2022/07/04 08:46:28;;;;;;;1.08;1.00;;;;;;;;;;4966825;28;20288;-74
2022/07/04 08:48:57;;;;;;;2.08;0.90;;;;;;;;;;4943144;29;20215;-74
2022/07/04 08:51:33;;;;;;;0.98;0.60;;;;;;;;;;4957696;28;20218;-74
2022/07/04 08:58:25;;;;;;;0.95;0.80;;;;;;;;;;4957777;28;20202;-75
2022/07/04 08:59:39;;;;;;;2.05;0.60;;;;;;;;;;4969147;28;20216;-74
2022/07/04 09:02:10;;;;;;;1.05;0.73;;;;;;;;;;4954353;28;20195;-74
2022/07/04 09:04:39;;;;;;;1.00;0.68;;;;;;;;;;4952876;28;20219;-74
2022/07/04 09:07:08;;;;;;;1.45;0.77;;;;;;;;;;4957205;28;20233;-74
2022/07/04 09:09:36;;;;;;;1.52;0.82;;;;;;;;;;4938478;29;20223;-74
2022/07/04 09:12:05;;;;;;;3.35;0.73;;;;;;;;;;4947998;29;20660;-74
2022/07/04 09:14:34;;;;;;;1.05;0.68;;;;;;;;;;4957166;28;20676;-75
2022/07/04 09:17:03;;;;;;;1.75;0.80;;;;;;;;;;4956894;28;20199;-74
2022/07/04 09:19:33;;;;;;;2.35;1.20;;;;;;;;;;4956961;28;20217;-74
2022/07/04 09:22:05;;;;;;;1.73;0.60;;;;;;;;;;4957507;28;20206;-74
2022/07/04 09:24:45;;;;;;;2.08;0.80;;;;;;;;;;4957581;28;20230;-74
2022/07/04 09:27:14;;;;;;;3.70;2.58;;;;;;;;;;4956365;28;20278;-75
2022/07/04 09:29:53;;;;;;;8.02;7.22;;;;;;;;;;4956686;28;20210;-74
2022/07/04 09:32:25;;;;;;;3.95;2.30;;;;;;;;;;4957423;28;20210;-74
2022/07/04 09:34:58;;;;;;;1.65;0.85;;;;;;;;;;4955980;28;20762;-74
2022/07/04 09:37:34;;;;;;;1.95;0.80;;;;;;;;;;4956816;28;20210;-75
2022/07/04 09:40:03;;;;;;;0.88;0.63;;;;;;;;;;4956916;28;20626;-73
2022/07/04 09:42:39;;;;;;;0.90;0.90;;;;;;;;;;4955321;28;20273;-74
2022/07/04 09:45:09;;;;;;;1.65;0.60;;;;;;;;;;4957017;28;20253;-74
2022/07/04 09:47:38;;;;;;;1.42;0.75;;;;;;;;;;4957390;28;20230;-77
2022/07/04 09:50:09;;;;;;;0.73;0.63;;;;;;;;;;4956403;28;20206;-78
2022/07/04 09:52:48;;;;;;;1.02;0.80;;;;;;;;;;4957855;28;20217;-79
2022/07/04 09:55:25;;;;;;;1.52;0.70;;;;;;;;;;4957058;28;20230;-79
2022/07/04 09:57:54;;;;;;;3.58;1.40;;;;;;;;;;4956761;28;20186;-79
2022/07/04 10:00:23;;;;;;;3.58;1.00;;;;;;;;;;4956661;28;20213;-80
2022/07/04 10:02:52;;;;;;;1.08;0.70;;;;;;;;;;4956578;28;20202;-79
2022/07/04 10:05:23;;;;;;;2.33;0.90;;;;;;;;;;4957024;28;20253;-79
2022/07/04 10:07:52;;;;;;;2.25;0.77;;;;;;;;;;4956735;28;20222;-79
2022/07/04 10:10:25;;;;;;;2.10;0.90;;;;;;;;;;4956427;28;20203;-79
2022/07/04 10:12:54;;;;;;;1.70;1.05;;;;;;;;;;4956331;28;20219;-80
2022/07/04 10:15:23;;;;;;;2.67;1.60;;;;;;;;;;4956236;28;20237;-79
2022/07/04 10:17:51;;;;;;;2.20;1.20;;;;;;;;;;4956174;28;20187;-79
2022/07/04 10:20:20;;;;;;;1.67;0.70;;;;;;;;;;4946878;28;20230;-77
2022/07/04 10:22:50;;;;;;;2.58;0.90;;;;;;;;;;4950634;28;20606;-79
2022/07/04 10:25:18;;;;;;;2.30;1.00;;;;;;;;;;4956297;28;20249;-79
2022/07/04 10:27:49;;;;;;;1.25;0.90;;;;;;;;;;4955942;28;20227;-80
2022/07/04 10:30:22;;;;;;;2.50;0.80;;;;;;;;;;4955487;28;20219;-79
2022/07/04 10:32:52;;;;;;;2.08;0.90;;;;;;;;;;4956420;29;20627;-79
2022/07/04 10:35:46;;;;;;;2.05;0.98;;;;;;;;;;4955809;29;20234;-78
2022/07/04 10:38:17;;;;;;;2.00;0.90;;;;;;;;;;4956276;28;20596;-79
2022/07/04 10:43:50;;;;;;;2.13;0.77;;;;;;;;;;4955611;28;20206;-80
2022/07/04 10:46:26;;;;;;;1.63;0.70;;;;;;;;;;4956138;28;20226;-78
2022/07/04 10:48:55;;;;;;;2.17;1.00;;;;;;;;;;4955880;28;20221;-77
2022/07/04 10:51:33;;;;;;;2.05;0.80;;;;;;;;;;4955284;28;20211;-78
2022/07/04 10:54:05;;;;;;;2.35;0.90;;;;;;;;;;4955835;28;20246;-78
2022/07/04 10:56:36;;;;;;;1.73;0.80;;;;;;;;;;4936892;29;20195;-79
2022/07/04 10:59:09;;;;;;;1.17;0.80;;;;;;;;;;4936734;29;20641;-79
2022/07/04 11:01:47;;;;;;;2.08;1.00;;;;;;;;;;4936502;29;20234;-79
2022/07/04 11:04:53;;;;;;;3.03;1.08;;;;;;;;;;4936443;29;20242;-77
2022/07/04 11:07:23;;;;;;;2.38;1.10;;;;;;;;;;4936834;29;20222;-79
2022/07/04 11:10:09;;;;;;;2.15;0.90;;;;;;;;;;4936307;29;20242;-79
2022/07/04 11:12:53;;;;;;;23.30;3.42;;;;;;;;;;4936158;29;20211;-79
2022/07/04 11:15:46;;;;;;;11.20;1.73;;;;;;;;;;4936493;29;20237;-80
2022/07/04 11:18:15;;;;;;;2.85;0.85;;;;;;;;;;4935927;29;20737;-79
2022/07/04 11:20:45;;;;;;;2.22;1.10;;;;;;;;;;4936498;29;20628;-79
2022/07/04 11:23:14;;;;;;;1.95;0.93;;;;;;;;;;4936496;29;20563;-79
2022/07/04 11:25:43;;;;;;;1.80;0.75;;;;;;;;;;4936291;29;20282;-78
2022/07/04 11:28:19;;;;;;;1.58;0.98;;;;;;;;;;4937599;29;20223;-77
2022/07/04 11:31:09;;;;;;;1.30;0.95;;;;;;;;;;4954993;29;20633;-77
2022/07/04 11:33:39;;;;;;;2.97;0.80;;;;;;;;;;4955462;28;20238;-77
2022/07/04 11:36:09;;;;;;;2.65;1.00;;;;;;;;;;4954696;28;20330;-79
2022/07/04 11:38:47;;;;;;;1.17;0.80;;;;;;;;;;4955468;28;20190;-79
2022/07/04 11:46:51;;;;;;;2.22;1.00;;;;;;;;;;4959078;28;20652;-79
2022/07/04 11:49:20;;;;;;;2.85;1.00;;;;;;;;;;4959131;28;20218;-77
2022/07/04 11:51:49;;;;;;;2.13;1.05;;;;;;;;;;4958758;28;20601;-79
2022/07/04 11:54:18;;;;;;;1.70;0.75;;;;;;;;;;4959171;28;20217;-78
2022/07/04 11:57:20;;;;;;;4.55;1.30;;;;;;;;;;4959096;28;20689;-79
2022/07/04 11:59:56;;;;;;;3.97;0.82;;;;;;;;;;4958626;28;20210;-77
2022/07/04 12:02:26;;;;;;;1.65;1.08;;;;;;;;;;4959083;28;20624;-78
2022/07/04 12:04:55;;;;;;;5.20;1.10;;;;;;;;;;4958727;28;20223;-79
2022/07/04 12:07:25;;;;;;;1.33;0.90;;;;;;;;;;4958476;28;20218;-79
2022/07/04 12:09:54;;;;;;;1.17;0.90;;;;;;;;;;4958425;28;20211;-79
2022/07/04 12:12:23;;;;;;;1.33;0.85;;;;;;;;;;4958705;28;20578;-79
2022/07/04 12:14:58;;;;;;;2.55;0.90;;;;;;;;;;4958392;28;20230;-79
2022/07/04 12:17:32;;;;;;;1.77;0.90;;;;;;;;;;4958357;28;20206;-77
2022/07/04 12:20:01;;;;;;;1.73;1.00;;;;;;;;;;4958630;29;20210;-78
2022/07/04 12:22:32;;;;;;;2.50;1.10;;;;;;;;;;4958712;28;20603;-78
2022/07/04 12:25:01;;;;;;;1.73;0.95;;;;;;;;;;4958422;28;20230;-78
2022/07/04 12:27:30;;;;;;;2.47;1.08;;;;;;;;;;4958463;28;20206;-77
2022/07/04 12:29:59;;;;;;;2.25;0.90;;;;;;;;;;4958588;28;20210;-78
2022/07/04 12:32:49;;;;;;;3.10;1.10;;;;;;;;;;4958149;28;20302;-78
2022/07/04 12:35:33;;;;;;;1.52;0.93;;;;;;;;;;4958189;28;20226;-77
2022/07/04 12:38:02;;;;;;;2.97;1.50;;;;;;;;;;4958057;28;20206;-79
2022/07/04 12:40:31;;;;;;;3.47;1.00;;;;;;;;;;4958359;28;20275;-79
2022/07/04 12:43:00;;;;;;;4.13;1.00;;;;;;;;;;4957739;28;20210;-77
2022/07/04 12:45:42;;;;;;;1.17;0.90;;;;;;;;;;4957762;28;20230;-77
2022/07/04 12:48:19;;;;;;;1.83;1.00;;;;;;;;;;4957772;28;20279;-78
2022/07/04 12:50:48;;;;;;;1.63;0.80;;;;;;;;;;4938691;29;20215;-79
2022/07/04 12:53:17;;;;;;;1.85;0.95;;;;;;;;;;4937676;29;20199;-77
2022/07/04 12:55:46;;;;;;;1.92;1.10;;;;;;;;;;4955933;29;20273;-77
2022/07/04 12:58:14;;;;;;;1.65;1.02;;;;;;;;;;4954194;28;20226;-77
2022/07/04 13:00:43;;;;;;;2.92;1.00;;;;;;;;;;4957706;28;20207;-79
2022/07/04 13:03:12;;;;;;;0.95;0.80;;;;;;;;;;4957526;28;20206;-77
2022/07/04 13:05:42;;;;;;;1.42;0.90;;;;;;;;;;4957454;28;20225;-78
2022/07/04 13:08:11;;;;;;;3.40;0.90;;;;;;;;;;4957153;28;20269;-78
2022/07/04 13:10:40;;;;;;;1.00;0.90;;;;;;;;;;4957596;28;20279;-78
2022/07/04 13:13:08;;;;;;;3.13;1.90;;;;;;;;;;4957378;28;20202;-79
2022/07/04 13:15:37;;;;;;;4.15;1.20;;;;;;;;;;4957296;28;20226;-78
2022/07/04 13:18:05;;;;;;;3.65;1.00;;;;;;;;;;4957148;28;20191;-77
2022/07/04 13:20:34;;;;;;;2.83;1.02;;;;;;;;;;4944992;28;20645;-78
2022/07/04 13:23:03;;;;;;;2.20;1.00;;;;;;;;;;4938667;29;20567;-78
2022/07/04 13:25:42;;;;;;;1.25;0.90;;;;;;;;;;4937952;29;20250;-78
2022/07/04 13:28:11;;;;;;;1.92;1.10;;;;;;;;;;4938270;29;20246;-77
2022/07/04 13:30:40;;;;;;;2.35;0.90;;;;;;;;;;4937706;29;20211;-78
2022/07/04 13:33:08;;;;;;;1.15;0.90;;;;;;;;;;4937853;29;20211;-78
2022/07/04 13:35:37;;;;;;;1.77;1.10;;;;;;;;;;4937997;29;20223;-78
2022/07/04 13:38:06;;;;;;;2.50;1.20;;;;;;;;;;4950301;29;20218;-78
2022/07/04 13:40:35;;;;;;;4.68;1.30;;;;;;;;;;4956740;28;20206;-78
2022/07/04 13:43:09;;;;;;;1.98;1.00;;;;;;;;;;4956842;28;20263;-78
2022/07/04 13:45:40;;;;;;;6.10;0.93;;;;;;;;;;4956209;28;20305;-79
2022/07/04 13:48:10;;;;;;;2.03;1.05;;;;;;;;;;4957041;28;20210;-77
2022/07/04 13:50:39;;;;;;;3.80;1.00;;;;;;;;;;4956794;28;20696;-76
2022/07/04 13:53:09;;;;;;;2.60;1.67;;;;;;;;;;4956269;28;20215;-79
2022/07/04 13:55:38;;;;;;;3.95;1.00;;;;;;;;;;4956152;29;20338;-79
2022/07/04 13:58:08;;;;;;;2.33;1.05;;;;;;;;;;4956806;28;20206;-77
2022/07/04 14:00:37;;;;;;;7.00;1.30;;;;;;;;;;4956748;28;20672;-76
2022/07/04 14:03:06;;;;;;;4.05;1.20;;;;;;;;;;4937652;29;20626;-78
2022/07/04 14:05:35;;;;;;;1.92;0.95;;;;;;;;;;4937178;29;20227;-78
2022/07/04 14:08:03;;;;;;;18.35;2.10;;;;;;;;;;4938258;29;20586;-78
2022/07/04 14:10:34;;;;;;;9.18;1.50;;;;;;;;;;4956485;28;20297;-77
2022/07/04 14:13:03;;;;;;;13.02;1.70;;;;;;;;;;4956172;29;20191;-78
2022/07/04 14:15:37;;;;;;;12.82;1.70;;;;;;;;;;4956414;29;20624;-79
2022/07/04 14:18:11;;;;;;;19.20;2.25;;;;;;;;;;4956455;28;20612;-77
2022/07/04 14:20:39;;;;;;;2.03;0.98;;;;;;;;;;4956211;28;20194;-78
2022/07/04 14:23:07;;;;;;;2.00;1.05;;;;;;;;;;4956468;28;20683;-78
2022/07/04 14:25:37;;;;;;;2.95;1.25;;;;;;;;;;4956654;28;20616;-77
2022/07/04 14:28:06;;;;;;;2.22;1.00;;;;;;;;;;4956183;28;20222;-77
2022/07/04 14:30:34;;;;;;;1.67;1.00;;;;;;;;;;4955574;28;20305;-78
2022/07/04 14:33:03;;;;;;;14.75;1.55;;;;;;;;;;4956203;28;20218;-78
2022/07/04 14:35:31;;;;;;;48.13;3.15;;;;;;;;;;4956102;28;20226;-77
2022/07/04 14:38:00;;;;;;;3.55;1.20;;;;;;;;;;4955660;28;20211;-76
2022/07/04 14:40:28;;;;;;;23.35;2.30;;;;;;;;;;4955814;28;20214;-79
2022/07/04 14:42:58;;;;;;;13.75;1.60;;;;;;;;;;4955949;28;20236;-78
2022/07/04 14:45:27;;;;;;;23.20;2.45;;;;;;;;;;4956310;28;20223;-78
2022/07/04 14:47:55;;;;;;;4.75;1.10;;;;;;;;;;4955926;28;20210;-78
2022/07/04 14:50:24;;;;;;;3.70;1.20;;;;;;;;;;4955808;28;20722;-79
2022/07/04 14:52:52;;;;;;;10.25;1.50;;;;;;;;;;4955866;28;20558;-79
2022/07/04 14:55:21;;;;;;;3.13;1.10;;;;;;;;;;4955382;28;20227;-76
2022/07/04 14:57:49;;;;;;;3.60;1.10;;;;;;;;;;4955448;28;20202;-77
2022/07/04 15:00:19;;;;;;;3.80;1.50;;;;;;;;;;4955635;29;20202;-78
2022/07/04 15:02:49;;;;;;;6.32;1.30;;;;;;;;;;4955216;28;20206;-79
2022/07/04 15:05:18;;;;;;;2.35;1.30;;;;;;;;;;4955336;28;20322;-78
2022/07/04 15:07:46;;;;;;;5.35;1.40;;;;;;;;;;4955559;28;20626;-79
2022/07/04 15:10:15;;;;;;;3.33;1.27;;;;;;;;;;4955546;28;20230;-77
2022/07/04 15:12:44;;;;;;;5.28;1.00;;;;;;;;;;4955618;28;20210;-78
2022/07/04 15:15:13;;;;;;;4.82;1.25;;;;;;;;;;4955885;28;20223;-79
2022/07/04 15:18:03;;;;;;;3.83;1.15;;;;;;;;;;4955554;28;20195;-78
2022/07/04 15:26:04;;;;;;;4.95;1.30;;;;;;;;;;4955386;28;20609;-77
2022/07/04 15:28:32;;;;;;;4.55;1.42;;;;;;;;;;4955203;28;20207;-77
2022/07/04 15:31:01;;;;;;;4.53;1.80;;;;;;;;;;4955539;28;20226;-79
2022/07/04 15:33:31;;;;;;;3.08;1.20;;;;;;;;;;4955481;28;20202;-79